Yass, Australia
Current Conditions -  °F | °C
As of 6:00 PM on Friday 28 Nov 2014 (Local Time) from YSCB Reporting Station
Clear Clear  
Wind Chill: 79°   Ceiling: Unl
Heat Index: 79°   Visibility: 6mi
Dew Point: 41°   Wind: 7mph
Humidity: 26%   Direction: 310°NW
Pressure: 30.03"   Gusts: NA
Location:  34.84°S, 148.91°E
Report Text: YSCB 280700Z 31006KT CAVOK 26/05 Q1017 FM0700 08016KT CAVOK
Loading
Personal Weather Stations






























Interactive Weather Map New forecast layout! Learn more

10-Day Weather Forecast

Advertisements
Track Severe Weather on mobile